Zeynalabdin Tagiyev — 9HLD8 — position and weather

sailwx.info

Track history (hours):
 
Tides and Currents Weather Stations Pressure Air Temp Water Temp Dewpoint Dewpoint Depression Visibility Wind Speed Wind Dir Waves Ship Positions

Zeynalabdin Tagiyev

Last reported at 2015-Feb-25 10:14 UTC. Time now 2015-Mar-03 04:47 UTC.
Position N 40°57' E 028°55'.

Length 140 m; draft 4.7 m.

Type: Cargo ship. MMSI: 256107000.

Date/timePositionNaut miles runAvg speedWind from/ knotsBaromVisibWave heightAir tempDewpointWater temp
2015-Feb-25 10:14N 40°57' E 028°55'2 2.3
2015-Feb-25 09:31N 40°58' E 028°55'0 0.0
2015-Feb-25 08:13N 40°58' E 028°55'0 0.0
2015-Feb-25 07:26N 40°58' E 028°55'0 0.0
2015-Feb-25 06:22N 40°58' E 028°55'0 0.0
2015-Feb-25 05:10N 40°58' E 028°55'0 0.0
2015-Feb-25 04:31N 40°58' E 028°55'0 0.0
2015-Feb-25 02:25N 40°58' E 028°55'0 0.0
2015-Feb-25 00:23N 40°58' E 028°55'38 8.0
2015-Feb-24 19:34N 41°27' E 029°29'0 0.2
2015-Feb-24 18:31N 41°27' E 029°29'1 0.5
2015-Feb-24 17:33N 41°27' E 029°28'1 0.4
2015-Feb-24 15:31N 41°27' E 029°27'0 0.3
2015-Feb-24 14:28N 41°27' E 029°26'  
2015-Feb-21 20:15N 46°35' E 031°36'6 9.0
2015-Feb-21 19:32N 46°36' E 031°46'8 8.3
2015-Feb-21 18:33N 46°40' E 031°56'8 8.2
2015-Feb-21 17:33N 46°48' E 031°53'9 9.2
2015-Feb-21 16:33N 46°55' E 032°01'3 3.1
2015-Feb-21 15:33N 46°56' E 031°57'0 0.0
2015-Feb-21 14:32N 46°56' E 031°57'0 0.0
2015-Feb-21 13:33N 46°56' E 031°57'0 0.0
2015-Feb-21 12:32N 46°56' E 031°57'0 0.0
2015-Feb-21 11:32N 46°56' E 031°57'0 0.0
2015-Feb-21 10:32N 46°56' E 031°57'0 0.0
2015-Feb-21 09:33N 46°56' E 031°57'0 0.0
2015-Feb-21 08:31N 46°56' E 031°57'0 0.0
2015-Feb-21 07:23N 46°56' E 031°57'0 0.0
2015-Feb-21 06:32N 46°56' E 031°57'0 0.0
2015-Feb-21 05:32N 46°56' E 031°57'0 0.0
2015-Feb-21 04:31N 46°56' E 031°57'0 0.0
2015-Feb-21 03:33N 46°56' E 031°57'0 0.0
2015-Feb-21 02:30N 46°56' E 031°57'0 0.0
2015-Feb-21 01:33N 46°56' E 031°57'0 0.0
2015-Feb-21 00:33N 46°56' E 031°57'0 0.0
2015-Feb-20 23:33N 46°56' E 031°57'0 0.0
2015-Feb-20 22:32N 46°56' E 031°57'0 0.0
2015-Feb-20 21:32N 46°56' E 031°57'0 0.0
2015-Feb-20 20:32N 46°56' E 031°57'0 0.0
2015-Feb-20 19:33N 46°56' E 031°57'0 0.0
2015-Feb-20 18:30N 46°56' E 031°57'0 0.0
2015-Feb-20 17:33N 46°56' E 031°57'0 0.0
2015-Feb-20 16:33N 46°56' E 031°57'0 0.0
2015-Feb-20 15:31N 46°56' E 031°57'0 0.0
2015-Feb-20 14:31N 46°56' E 031°57'0 0.0
2015-Feb-20 13:33N 46°56' E 031°57'0 0.0
2015-Feb-20 12:32N 46°56' E 031°57'0 0.0
2015-Feb-20 11:32N 46°56' E 031°57'0 0.0
2015-Feb-20 10:28N 46°56' E 031°57'0 0.0
2015-Feb-20 09:31N 46°56' E 031°57'0 0.0
2015-Feb-20 08:31N 46°56' E 031°57'0 0.0
2015-Feb-20 07:31N 46°56' E 031°57'0 0.0
2015-Feb-20 06:31N 46°56' E 031°57'0 0.0
2015-Feb-20 05:32N 46°56' E 031°57'0 0.0
2015-Feb-20 04:28N 46°56' E 031°57'0 0.0
2015-Feb-20 03:33N 46°56' E 031°57'0 0.0
2015-Feb-20 02:28N 46°56' E 031°57'0 0.0
2015-Feb-20 01:29N 46°56' E 031°57'0 0.0
2015-Feb-20 00:30N 46°56' E 031°57'0 0.0
2015-Feb-19 23:31N 46°56' E 031°57'0 0.0
2015-Feb-19 22:31N 46°56' E 031°57'0 0.0
2015-Feb-19 21:30N 46°56' E 031°57'0 0.0
2015-Feb-19 20:33N 46°56' E 031°57'0 0.0
2015-Feb-19 19:28N 46°56' E 031°57'0 0.0
2015-Feb-19 18:28N 46°56' E 031°57'0 0.0
2015-Feb-19 17:31N 46°56' E 031°57'0 0.0
2015-Feb-19 16:31N 46°56' E 031°57'0 0.0
2015-Feb-19 15:31N 46°56' E 031°57'0 0.0
2015-Feb-19 14:31N 46°56' E 031°57'0 0.0
2015-Feb-19 13:32N 46°56' E 031°57'0 0.0
2015-Feb-19 12:33N 46°56' E 031°57'0 0.0
2015-Feb-19 11:31N 46°56' E 031°57'0 0.0
2015-Feb-19 10:33N 46°56' E 031°57'0 0.0
2015-Feb-19 09:32N 46°56' E 031°57'0 0.0
2015-Feb-19 08:32N 46°56' E 031°57'0 0.0
2015-Feb-19 07:33N 46°56' E 031°57'0 0.0
2015-Feb-19 06:30N 46°56' E 031°57'0 0.0
2015-Feb-19 05:31N 46°56' E 031°57'0 0.0
2015-Feb-19 04:31N 46°56' E 031°57'0 0.0
2015-Feb-19 03:31N 46°56' E 031°57'0 0.0
2015-Feb-19 02:31N 46°56' E 031°57'0 0.0
2015-Feb-19 01:31N 46°56' E 031°57'0 0.0
2015-Feb-19 00:31N 46°56' E 031°57'0 0.0
2015-Feb-18 23:33N 46°56' E 031°57'0 0.0
2015-Feb-18 22:33N 46°56' E 031°57'0 0.0
2015-Feb-18 21:30N 46°56' E 031°57'0 0.0
2015-Feb-18 20:33N 46°56' E 031°57'0 0.0
2015-Feb-18 19:31N 46°56' E 031°57'0 0.0
2015-Feb-18 18:31N 46°56' E 031°57'0 0.0
2015-Feb-18 17:31N 46°56' E 031°57'0 0.0
2015-Feb-18 16:33N 46°56' E 031°57'0 0.0
2015-Feb-18 15:33N 46°56' E 031°57'0 0.0
2015-Feb-18 14:33N 46°56' E 031°57'0 0.0
2015-Feb-18 13:07N 46°56' E 031°57'0 0.0
2015-Feb-18 12:28N 46°56' E 031°57'0 0.0
2015-Feb-18 11:32N 46°56' E 031°57'0 0.0
2015-Feb-18 10:29N 46°56' E 031°57'0 0.0
2015-Feb-18 09:32N 46°56' E 031°57'0 0.0
2015-Feb-18 08:28N 46°56' E 031°57'0 0.1
2015-Feb-18 07:32N 46°56' E 031°57'1 0.9
2015-Feb-18 06:29N 46°56' E 031°56'0 0.0
2015-Feb-18 05:32N 46°56' E 031°56'0 0.0
2015-Feb-18 04:32N 46°56' E 031°56'0 0.0
2015-Feb-18 03:32N 46°56' E 031°56'0 0.0
2015-Feb-18 02:32N 46°56' E 031°56'0 0.0
2015-Feb-18 01:32N 46°56' E 031°56'0 0.0
2015-Feb-18 00:32N 46°56' E 031°56'0 0.0
2015-Feb-17 23:32N 46°56' E 031°56'0 0.0
2015-Feb-17 22:32N 46°56' E 031°56'0 0.0
2015-Feb-17 21:32N 46°56' E 031°56'0 0.0
2015-Feb-17 20:29N 46°56' E 031°56'0 0.0
2015-Feb-17 19:32N 46°56' E 031°56'0 0.0
2015-Feb-17 17:33N 46°56' E 031°56'0 0.0
2015-Feb-17 16:33N 46°56' E 031°56'0 0.0
2015-Feb-17 15:33N 46°56' E 031°56'2 2.3
2015-Feb-17 14:34N 46°56' E 031°60'7 6.9
2015-Feb-17 13:33N 46°50' E 031°56'8 8.0
2015-Feb-17 12:33N 46°42' E 031°56'9 8.4
2015-Feb-17 11:30N 46°36' E 031°47'  
Track history (hours):
 
Tides and Currents Weather Stations Pressure Air Temp Water Temp Dewpoint Dewpoint Depression Visibility Wind Speed Wind Dir Waves Ship Positions

Zeynalabdin Tagiyev

Last reported at 2015-Feb-25 10:14 UTC. Time now 2015-Mar-03 04:47 UTC.
Position N 40°57' E 028°55'.

Length 140 m; draft 4.7 m.

Type: Cargo ship. MMSI: 256107000.

Date/timePositionNaut miles runAvg speedWind from/ knotsBaromVisibWave heightAir tempDewpointWater temp
2015-Feb-25 10:14N 40°57' E 028°55'2 2.3
2015-Feb-25 09:31N 40°58' E 028°55'0 0.0
2015-Feb-25 08:13N 40°58' E 028°55'0 0.0
2015-Feb-25 07:26N 40°58' E 028°55'0 0.0
2015-Feb-25 06:22N 40°58' E 028°55'0 0.0
2015-Feb-25 05:10N 40°58' E 028°55'0 0.0
2015-Feb-25 04:31N 40°58' E 028°55'0 0.0
2015-Feb-25 02:25N 40°58' E 028°55'0 0.0
2015-Feb-25 00:23N 40°58' E 028°55'38 8.0
2015-Feb-24 19:34N 41°27' E 029°29'0 0.2
2015-Feb-24 18:31N 41°27' E 029°29'1 0.5
2015-Feb-24 17:33N 41°27' E 029°28'1 0.4
2015-Feb-24 15:31N 41°27' E 029°27'0 0.3
2015-Feb-24 14:28N 41°27' E 029°26'  
2015-Feb-21 20:15N 46°35' E 031°36'6 9.0
2015-Feb-21 19:32N 46°36' E 031°46'8 8.3
2015-Feb-21 18:33N 46°40' E 031°56'8 8.2
2015-Feb-21 17:33N 46°48' E 031°53'9 9.2
2015-Feb-21 16:33N 46°55' E 032°01'3 3.1
2015-Feb-21 15:33N 46°56' E 031°57'0 0.0
2015-Feb-21 14:32N 46°56' E 031°57'0 0.0
2015-Feb-21 13:33N 46°56' E 031°57'0 0.0
2015-Feb-21 12:32N 46°56' E 031°57'0 0.0
2015-Feb-21 11:32N 46°56' E 031°57'0 0.0
2015-Feb-21 10:32N 46°56' E 031°57'0 0.0
2015-Feb-21 09:33N 46°56' E 031°57'0 0.0
2015-Feb-21 08:31N 46°56' E 031°57'0 0.0
2015-Feb-21 07:23N 46°56' E 031°57'0 0.0
2015-Feb-21 06:32N 46°56' E 031°57'0 0.0
2015-Feb-21 05:32N 46°56' E 031°57'0 0.0
2015-Feb-21 04:31N 46°56' E 031°57'0 0.0
2015-Feb-21 03:33N 46°56' E 031°57'0 0.0
2015-Feb-21 02:30N 46°56' E 031°57'0 0.0
2015-Feb-21 01:33N 46°56' E 031°57'0 0.0
2015-Feb-21 00:33N 46°56' E 031°57'0 0.0
2015-Feb-20 23:33N 46°56' E 031°57'0 0.0
2015-Feb-20 22:32N 46°56' E 031°57'0 0.0
2015-Feb-20 21:32N 46°56' E 031°57'0 0.0
2015-Feb-20 20:32N 46°56' E 031°57'0 0.0
2015-Feb-20 19:33N 46°56' E 031°57'0 0.0
2015-Feb-20 18:30N 46°56' E 031°57'0 0.0
2015-Feb-20 17:33N 46°56' E 031°57'0 0.0
2015-Feb-20 16:33N 46°56' E 031°57'0 0.0
2015-Feb-20 15:31N 46°56' E 031°57'0 0.0
2015-Feb-20 14:31N 46°56' E 031°57'0 0.0
2015-Feb-20 13:33N 46°56' E 031°57'0 0.0
2015-Feb-20 12:32N 46°56' E 031°57'0 0.0
2015-Feb-20 11:32N 46°56' E 031°57'0 0.0
2015-Feb-20 10:28N 46°56' E 031°57'0 0.0
2015-Feb-20 09:31N 46°56' E 031°57'0 0.0
2015-Feb-20 08:31N 46°56' E 031°57'0 0.0
2015-Feb-20 07:31N 46°56' E 031°57'0 0.0
2015-Feb-20 06:31N 46°56' E 031°57'0 0.0
2015-Feb-20 05:32N 46°56' E 031°57'0 0.0
2015-Feb-20 04:28N 46°56' E 031°57'0 0.0
2015-Feb-20 03:33N 46°56' E 031°57'0 0.0
2015-Feb-20 02:28N 46°56' E 031°57'0 0.0
2015-Feb-20 01:29N 46°56' E 031°57'0 0.0
2015-Feb-20 00:30N 46°56' E 031°57'0 0.0
2015-Feb-19 23:31N 46°56' E 031°57'0 0.0
2015-Feb-19 22:31N 46°56' E 031°57'0 0.0
2015-Feb-19 21:30N 46°56' E 031°57'0 0.0
2015-Feb-19 20:33N 46°56' E 031°57'0 0.0
2015-Feb-19 19:28N 46°56' E 031°57'0 0.0
2015-Feb-19 18:28N 46°56' E 031°57'0 0.0
2015-Feb-19 17:31N 46°56' E 031°57'0 0.0
2015-Feb-19 16:31N 46°56' E 031°57'0 0.0
2015-Feb-19 15:31N 46°56' E 031°57'0 0.0
2015-Feb-19 14:31N 46°56' E 031°57'0 0.0
2015-Feb-19 13:32N 46°56' E 031°57'0 0.0
2015-Feb-19 12:33N 46°56' E 031°57'0 0.0
2015-Feb-19 11:31N 46°56' E 031°57'0 0.0
2015-Feb-19 10:33N 46°56' E 031°57'0 0.0
2015-Feb-19 09:32N 46°56' E 031°57'0 0.0
2015-Feb-19 08:32N 46°56' E 031°57'0 0.0
2015-Feb-19 07:33N 46°56' E 031°57'0 0.0
2015-Feb-19 06:30N 46°56' E 031°57'0 0.0
2015-Feb-19 05:31N 46°56' E 031°57'0 0.0
2015-Feb-19 04:31N 46°56' E 031°57'0 0.0
2015-Feb-19 03:31N 46°56' E 031°57'0 0.0
2015-Feb-19 02:31N 46°56' E 031°57'0 0.0
2015-Feb-19 01:31N 46°56' E 031°57'0 0.0
2015-Feb-19 00:31N 46°56' E 031°57'0 0.0
2015-Feb-18 23:33N 46°56' E 031°57'0 0.0
2015-Feb-18 22:33N 46°56' E 031°57'0 0.0
2015-Feb-18 21:30N 46°56' E 031°57'0 0.0
2015-Feb-18 20:33N 46°56' E 031°57'0 0.0
2015-Feb-18 19:31N 46°56' E 031°57'0 0.0
2015-Feb-18 18:31N 46°56' E 031°57'0 0.0
2015-Feb-18 17:31N 46°56' E 031°57'0 0.0
2015-Feb-18 16:33N 46°56' E 031°57'0 0.0
2015-Feb-18 15:33N 46°56' E 031°57'0 0.0
2015-Feb-18 14:33N 46°56' E 031°57'0 0.0
2015-Feb-18 13:07N 46°56' E 031°57'0 0.0
2015-Feb-18 12:28N 46°56' E 031°57'0 0.0
2015-Feb-18 11:32N 46°56' E 031°57'0 0.0
2015-Feb-18 10:29N 46°56' E 031°57'0 0.0
2015-Feb-18 09:32N 46°56' E 031°57'0 0.0
2015-Feb-18 08:28N 46°56' E 031°57'0 0.1
2015-Feb-18 07:32N 46°56' E 031°57'1 0.9
2015-Feb-18 06:29N 46°56' E 031°56'0 0.0
2015-Feb-18 05:32N 46°56' E 031°56'0 0.0
2015-Feb-18 04:32N 46°56' E 031°56'0 0.0
2015-Feb-18 03:32N 46°56' E 031°56'0 0.0
2015-Feb-18 02:32N 46°56' E 031°56'0 0.0
2015-Feb-18 01:32N 46°56' E 031°56'0 0.0
2015-Feb-18 00:32N 46°56' E 031°56'0 0.0
2015-Feb-17 23:32N 46°56' E 031°56'0 0.0
2015-Feb-17 22:32N 46°56' E 031°56'0 0.0
2015-Feb-17 21:32N 46°56' E 031°56'0 0.0
2015-Feb-17 20:29N 46°56' E 031°56'0 0.0
2015-Feb-17 19:32N 46°56' E 031°56'0 0.0
2015-Feb-17 17:33N 46°56' E 031°56'0 0.0
2015-Feb-17 16:33N 46°56' E 031°56'0 0.0
2015-Feb-17 15:33N 46°56' E 031°56'2 2.3
2015-Feb-17 14:34N 46°56' E 031°60'7 6.9
2015-Feb-17 13:33N 46°50' E 031°56'8 8.0
2015-Feb-17 12:33N 46°42' E 031°56'9 8.4
2015-Feb-17 11:30N 46°36' E 031°47'  

Dump ship's entire track history